createdAt,value
2019-01-19T00:03:18.015Z,38.30
2019-01-19T00:07:31.316Z,36.37
2019-01-19T00:11:55.349Z,45.00
2019-01-19T00:15:59.922Z,45.13
2019-01-19T00:20:31.699Z,39.57
2019-01-19T00:24:46.715Z,32.70
2019-01-19T00:28:48.279Z,31.93
2019-01-19T00:32:57.497Z,44.63
2019-01-19T00:37:02.301Z,41.13
2019-01-19T00:41:28.364Z,36.23
2019-01-19T00:45:43.701Z,32.57
2019-01-19T00:49:45.381Z,32.53
2019-01-19T00:53:52.799Z,37.70
2019-01-19T00:58:03.176Z,34.67
2019-01-19T01:02:19.532Z,32.53
2019-01-19T01:06:21.124Z,39.73
2019-01-19T01:10:22.750Z,34.13
2019-01-19T01:14:55.412Z,41.10
2019-01-19T01:19:12.067Z,33.63
2019-01-19T01:23:22.683Z,34.33
2019-01-19T01:27:30.412Z,41.00
2019-01-19T01:31:34.789Z,45.03
2019-01-19T01:35:40.863Z,39.80
2019-01-19T01:39:57.525Z,38.40
2019-01-19T01:44:18.960Z,32.80
2019-01-19T01:48:35.631Z,29.87
2019-01-19T01:52:52.154Z,34.17
2019-01-19T01:56:50.489Z,35.37
2019-01-19T02:01:04.202Z,34.53
2019-01-19T02:05:22.346Z,33.23
2019-01-19T02:09:29.851Z,46.57
2019-01-19T02:13:49.676Z,35.43
2019-01-19T02:17:53.985Z,37.00
2019-01-19T02:22:08.038Z,31.33
2019-01-19T02:26:22.754Z,43.53
2019-01-19T02:30:33.496Z,52.47
2019-01-19T02:34:44.111Z,44.73
2019-01-19T02:39:09.500Z,34.57
2019-01-19T02:43:23.454Z,24.70
2019-01-19T02:47:46.063Z,30.40
2019-01-19T02:51:56.723Z,25.57
2019-01-19T02:56:04.428Z,25.90
2019-01-19T03:00:25.479Z,27.97
2019-01-19T03:04:27.066Z,26.17
2019-01-19T03:08:35.971Z,24.73
2019-01-19T03:12:48.758Z,24.10
2019-01-19T03:17:02.298Z,31.43
2019-01-19T03:21:15.110Z,30.50
2019-01-19T03:25:40.949Z,27.67
2019-01-19T03:29:57.942Z,27.13
2019-01-19T03:33:59.585Z,28.37
2019-01-19T03:38:01.218Z,22.80
2019-01-19T03:42:07.368Z,23.07
2019-01-19T03:46:31.993Z,24.00
2019-01-19T03:50:42.638Z,25.87
2019-01-19T03:54:52.824Z,25.80
2019-01-19T03:59:06.321Z,25.80
2019-01-19T04:03:19.339Z,25.07
2019-01-19T04:07:38.914Z,29.83
2019-01-19T04:11:58.583Z,24.90
2019-01-19T04:16:23.565Z,32.33
2019-01-19T04:20:33.426Z,24.87
2019-01-19T04:24:35.332Z,21.03
2019-01-19T04:28:34.064Z,22.30
2019-01-19T04:32:32.472Z,20.60
2019-01-19T04:36:31.405Z,25.47
2019-01-19T04:40:29.783Z,24.10
2019-01-19T04:44:28.128Z,22.97
2019-01-19T04:48:26.557Z,21.00
2019-01-19T04:52:24.947Z,23.33
2019-01-19T04:56:23.745Z,26.80
2019-01-19T05:00:22.082Z,20.27
2019-01-19T05:04:20.485Z,21.07
2019-01-19T05:08:18.846Z,19.97
2019-01-19T05:12:17.217Z,20.63
2019-01-19T05:16:15.581Z,20.43
2019-01-19T05:20:15.037Z,18.53
2019-01-19T05:24:13.371Z,16.87
2019-01-19T05:28:12.489Z,20.97
2019-01-19T05:32:12.224Z,18.10
2019-01-19T05:36:14.497Z,19.17
2019-01-19T05:40:13.199Z,17.77
2019-01-19T05:44:11.513Z,19.53
2019-01-19T05:48:09.855Z,17.73
2019-01-19T05:52:08.231Z,20.50
2019-01-19T05:56:06.551Z,15.13
2019-01-19T06:00:20.669Z,17.23
2019-01-19T06:04:19.940Z,20.87
2019-01-19T06:08:18.339Z,15.17
2019-01-19T06:12:17.620Z,16.00
2019-01-19T06:16:16.007Z,17.40
2019-01-19T06:20:16.607Z,24.23
2019-01-19T06:24:18.086Z,16.07
2019-01-19T06:28:16.485Z,25.00
2019-01-19T06:32:14.882Z,15.53
2019-01-19T06:36:13.266Z,15.60
2019-01-19T06:40:16.178Z,20.53
2019-01-19T06:44:15.318Z,30.50
2019-01-19T06:48:13.722Z,18.00
2019-01-19T06:52:12.095Z,14.83
2019-01-19T06:56:10.845Z,13.97
2019-01-19T07:00:15.435Z,20.50
2019-01-19T07:04:13.821Z,24.70
2019-01-19T07:08:12.342Z,16.23
2019-01-19T07:12:10.719Z,16.80
2019-01-19T07:16:15.543Z,21.60
2019-01-19T07:20:19.157Z,16.87
2019-01-19T07:24:17.549Z,19.17
2019-01-19T07:28:16.542Z,17.67
2019-01-19T07:32:14.899Z,22.07
2019-01-19T07:36:13.554Z,14.20
2019-01-19T07:40:14.393Z,17.93
2019-01-19T07:44:12.763Z,19.43
2019-01-19T07:48:11.522Z,17.10
2019-01-19T07:52:09.908Z,18.37
2019-01-19T07:56:08.313Z,16.73
2019-01-19T08:00:17.510Z,18.47
2019-01-19T08:04:15.883Z,16.67
2019-01-19T08:08:15.765Z,16.20
2019-01-19T08:12:14.242Z,17.70
2019-01-19T08:16:12.638Z,16.77
2019-01-19T08:20:13.389Z,18.40
2019-01-19T08:24:11.745Z,15.13
2019-01-19T08:28:10.213Z,23.77
2019-01-19T08:32:08.918Z,17.13
2019-01-19T08:36:07.580Z,15.60
2019-01-19T08:40:12.164Z,17.13
2019-01-19T08:44:10.554Z,18.10
2019-01-19T08:48:12.938Z,19.93
2019-01-19T08:52:11.331Z,15.80
2019-01-19T08:56:09.712Z,20.50
2019-01-19T09:00:16.530Z,18.67
2019-01-19T09:04:14.908Z,14.40
2019-01-19T09:08:13.295Z,14.53
2019-01-19T09:12:11.664Z,13.17
2019-01-19T09:16:13.670Z,18.37
2019-01-19T09:20:16.753Z,18.13
2019-01-19T09:24:15.617Z,12.83
2019-01-19T09:28:14.314Z,12.03
2019-01-19T09:32:12.978Z,13.53
2019-01-19T09:36:11.360Z,13.63
2019-01-19T09:40:15.608Z,7.97
2019-01-19T09:44:13.976Z,13.50
2019-01-19T09:48:22.413Z,10.20
2019-01-19T09:52:12.395Z,9.33
2019-01-19T09:56:10.792Z,7.07
2019-01-19T10:00:25.577Z,9.60
2019-01-19T10:04:23.956Z,5.80
2019-01-19T10:08:22.342Z,8.40
2019-01-19T10:12:20.717Z,8.03
2019-01-19T10:16:19.098Z,7.23
2019-01-19T10:20:28.957Z,5.77
2019-01-19T10:24:27.328Z,4.50
2019-01-19T10:28:27.319Z,11.23
2019-01-19T10:32:25.615Z,7.63
2019-01-19T10:36:24.813Z,7.37
2019-01-19T10:40:23.504Z,6.77
2019-01-19T10:44:21.807Z,9.13
2019-01-19T10:48:20.187Z,4.43
2019-01-19T10:52:18.543Z,6.53
2019-01-19T10:56:16.939Z,5.13
2019-01-19T11:00:24.201Z,8.57
2019-01-19T11:04:22.475Z,6.23
2019-01-19T11:08:20.803Z,6.57
2019-01-19T11:12:19.177Z,6.03
2019-01-19T11:16:17.583Z,8.73
2019-01-19T11:20:21.706Z,3.97
2019-01-19T11:24:20.174Z,3.70
2019-01-19T11:28:18.496Z,7.43
2019-01-19T11:32:17.635Z,5.00
2019-01-19T11:36:15.924Z,5.93
2019-01-19T11:40:20.030Z,3.87
2019-01-19T11:44:18.712Z,7.43
2019-01-19T11:48:17.055Z,5.53
2019-01-19T11:52:15.436Z,4.33
2019-01-19T11:56:13.794Z,8.43
2019-01-19T12:00:23.633Z,5.43
2019-01-19T12:04:21.972Z,6.23
2019-01-19T12:08:20.436Z,4.07
2019-01-19T12:12:21.577Z,3.97
2019-01-19T12:16:19.914Z,5.17
2019-01-19T12:20:20.792Z,4.67
2019-01-19T12:24:19.460Z,3.93
2019-01-19T12:28:19.381Z,6.87
2019-01-19T12:32:17.770Z,4.57
2019-01-19T12:36:17.760Z,5.73
2019-01-19T12:40:18.911Z,6.73
2019-01-19T12:44:17.228Z,4.37
2019-01-19T12:48:15.595Z,5.90
2019-01-19T12:52:14.283Z,6.63
2019-01-19T12:56:14.859Z,4.33
2019-01-19T13:00:21.852Z,5.80
2019-01-19T13:04:20.244Z,2.90
2019-01-19T13:08:24.826Z,5.00
2019-01-19T13:12:25.942Z,4.03
2019-01-19T13:16:39.404Z,3.43
2019-01-19T13:20:43.890Z,6.10
2019-01-19T13:24:45.517Z,6.10
2019-01-19T13:28:53.230Z,4.17
2019-01-19T13:32:57.921Z,3.50
2019-01-19T13:37:11.342Z,5.20
2019-01-19T13:41:28.010Z,5.80
2019-01-19T13:45:32.401Z,4.47
2019-01-19T13:50:07.467Z,4.63
2019-01-19T13:54:27.177Z,6.20
2019-01-19T13:58:35.010Z,6.23
2019-01-19T14:03:11.839Z,3.70
2019-01-19T14:07:15.088Z,6.67
2019-01-19T14:11:57.037Z,6.73
2019-01-19T14:15:58.964Z,6.90
2019-01-19T14:20:00.589Z,5.83
2019-01-19T14:24:14.536Z,6.10
2019-01-19T14:28:23.912Z,5.47
2019-01-19T14:32:43.391Z,4.83
2019-01-19T14:36:51.760Z,5.93
2019-01-19T14:41:12.957Z,8.40
2019-01-19T14:45:32.434Z,5.57
2019-01-19T14:49:52.236Z,6.13
2019-01-19T14:53:59.961Z,4.57
2019-01-19T14:58:21.021Z,9.93
2019-01-19T15:02:25.100Z,5.53
2019-01-19T15:06:44.910Z,7.23
2019-01-19T15:10:50.113Z,4.57
2019-01-19T15:15:13.965Z,4.90
2019-01-19T15:19:50.251Z,6.07
2019-01-19T15:23:54.594Z,6.37
2019-01-19T15:28:29.335Z,4.43
2019-01-19T15:32:45.899Z,7.17
2019-01-19T15:36:59.535Z,8.63
2019-01-19T15:41:20.544Z,8.60
2019-01-19T15:45:43.532Z,10.23
2019-01-19T15:49:50.880Z,8.80
2019-01-19T15:53:58.343Z,7.20
2019-01-19T15:58:05.769Z,7.97
2019-01-19T16:02:37.993Z,15.53
2019-01-19T16:06:48.452Z,11.30
2019-01-19T16:11:07.982Z,5.50
2019-01-19T16:15:18.343Z,8.77
2019-01-19T16:19:25.724Z,6.10
2019-01-19T16:23:29.911Z,8.50
2019-01-19T16:27:55.984Z,7.30
2019-01-19T16:32:17.181Z,11.20
2019-01-19T16:36:45.933Z,21.90
2019-01-19T16:40:56.302Z,40.17
2019-01-19T16:45:23.199Z,15.10
2019-01-19T16:49:36.631Z,19.17
2019-01-19T16:53:41.213Z,26.97
2019-01-19T16:58:03.555Z,9.33
2019-01-19T17:02:11.277Z,20.00
2019-01-19T17:06:30.574Z,13.80
2019-01-19T17:10:49.393Z,13.23
2019-01-19T17:15:07.259Z,17.20
2019-01-19T17:19:25.520Z,28.50
2019-01-19T17:23:42.193Z,17.93
2019-01-19T17:27:59.613Z,37.83
2019-01-19T17:32:25.168Z,35.07
2019-01-19T17:36:47.875Z,25.37
2019-01-19T17:40:49.565Z,27.07
2019-01-19T17:45:09.291Z,63.77
2019-01-19T17:49:16.771Z,247.90
2019-01-19T17:53:27.390Z,155.03
2019-01-19T17:57:34.587Z,71.60
2019-01-19T18:01:36.661Z,47.17
2019-01-19T18:05:50.803Z,49.00
2019-01-19T18:09:52.385Z,60.50
2019-01-19T18:14:09.347Z,48.27
2019-01-19T18:18:22.759Z,61.40
2019-01-19T18:22:57.608Z,37.27
2019-01-19T18:26:59.239Z,50.83
2019-01-19T18:31:17.073Z,23.77
2019-01-19T18:35:35.438Z,29.10
2019-01-19T18:39:54.980Z,24.70
2019-01-19T18:44:14.760Z,19.87
2019-01-19T18:48:19.348Z,34.80
2019-01-19T18:52:38.688Z,41.50
2019-01-19T18:57:05.811Z,27.83
2019-01-19T19:01:31.285Z,29.83
2019-01-19T19:05:52.189Z,26.97
2019-01-19T19:10:02.146Z,80.60
2019-01-19T19:14:14.819Z,31.97
2019-01-19T19:18:41.907Z,72.63
2019-01-19T19:22:52.392Z,58.50
2019-01-19T19:27:03.283Z,154.57
2019-01-19T19:31:30.681Z,122.80
2019-01-19T19:35:55.203Z,45.70
2019-01-19T19:40:23.995Z,60.23
2019-01-19T19:44:28.137Z,126.93
2019-01-19T19:48:50.745Z,42.20
2019-01-19T19:52:49.108Z,27.37
2019-01-19T19:56:46.628Z,36.40
2019-01-19T20:00:46.831Z,54.97
2019-01-19T20:04:45.232Z,30.30
2019-01-19T20:08:43.917Z,22.50
2019-01-19T20:12:42.320Z,22.17
2019-01-19T20:16:42.366Z,20.87
2019-01-19T20:20:40.768Z,19.47
2019-01-19T20:24:39.123Z,19.37
2019-01-19T20:28:37.525Z,27.33
2019-01-19T20:32:35.967Z,19.50
2019-01-19T20:36:34.346Z,290.40
2019-01-19T20:40:33.031Z,236.37
2019-01-19T20:44:32.020Z,143.93
2019-01-19T20:48:30.473Z,92.47
2019-01-19T20:52:28.958Z,118.00
2019-01-19T20:56:30.236Z,68.33
2019-01-19T21:00:28.749Z,52.70
2019-01-19T21:04:27.135Z,64.30
2019-01-19T21:08:25.537Z,49.80
2019-01-19T21:12:23.949Z,52.00
2019-01-19T21:16:22.329Z,23.93
2019-01-19T21:20:20.701Z,19.67
2019-01-19T21:24:19.041Z,31.27
2019-01-19T21:28:17.401Z,24.80
2019-01-19T21:32:15.750Z,20.00
2019-01-19T21:36:14.154Z,17.47
2019-01-19T21:40:13.934Z,21.33
2019-01-19T21:44:12.577Z,23.97
2019-01-19T21:48:10.956Z,26.47
2019-01-19T21:52:12.283Z,24.33
2019-01-19T21:56:10.737Z,24.87
2019-01-19T22:00:12.369Z,21.83
2019-01-19T22:04:10.697Z,25.47
2019-01-19T22:08:09.149Z,15.13
2019-01-19T22:12:10.581Z,31.90
2019-01-19T22:16:08.915Z,26.07
2019-01-19T22:20:10.130Z,36.30
2019-01-19T22:24:08.414Z,26.57
2019-01-19T22:28:12.261Z,18.40
2019-01-19T22:32:10.639Z,23.47
2019-01-19T22:36:09.028Z,19.70
2019-01-19T22:40:16.493Z,20.60
2019-01-19T22:44:14.879Z,20.37
2019-01-19T22:48:13.364Z,192.30
2019-01-19T22:52:11.715Z,52.63
2019-01-19T22:56:10.030Z,51.97
2019-01-19T23:00:25.452Z,59.03
2019-01-19T23:04:23.827Z,41.80
2019-01-19T23:08:22.173Z,28.80
2019-01-19T23:12:29.760Z,25.20
2019-01-19T23:16:28.044Z,14.40
2019-01-19T23:20:26.460Z,33.83
2019-01-19T23:28:42.228Z,23.33
2019-01-19T23:32:43.713Z,20.23
2019-01-19T23:36:42.075Z,14.10
2019-01-19T23:40:40.461Z,13.93
2019-01-19T23:44:39.190Z,16.00
2019-01-19T23:48:37.552Z,22.33
2019-01-19T23:52:35.970Z,11.80
2019-01-19T23:56:34.428Z,14.47
